createdAt,value
2022-12-11T00:03:04.830Z,100590.69
2022-12-11T00:08:54.104Z,100587.25
2022-12-11T00:14:40.892Z,100575.88
2022-12-11T00:20:27.521Z,100576.72
2022-12-11T00:26:15.557Z,100560.28
2022-12-11T00:32:02.234Z,100569.25
2022-12-11T00:37:50.206Z,100559.28
2022-12-11T00:43:37.401Z,100562.03
2022-12-11T00:49:24.118Z,100556.88
2022-12-11T00:55:11.701Z,100552.69
2022-12-11T01:01:06.083Z,100536.47
2022-12-11T01:06:52.868Z,100531.03
2022-12-11T01:12:39.677Z,100535.25
2022-12-11T01:18:26.660Z,100521.63
2022-12-11T01:24:13.481Z,100523.22
2022-12-11T01:30:00.145Z,100539.22
2022-12-11T01:35:46.878Z,100523.97
2022-12-11T01:41:34.060Z,100527.34
2022-12-11T01:47:20.908Z,100531.78
2022-12-11T01:53:10.530Z,100527.81
2022-12-11T01:59:02.890Z,100525.94
2022-12-11T02:04:49.680Z,100535.19
2022-12-11T02:11:07.087Z,100542.78
2022-12-11T02:17:04.932Z,100554.38
2022-12-11T02:23:17.771Z,100542.31
2022-12-11T02:29:11.416Z,100539.13
2022-12-11T02:35:09.763Z,100540.00
2022-12-11T02:40:59.068Z,100523.16
2022-12-11T02:46:49.357Z,100518.78
2022-12-11T02:52:37.958Z,100519.59
2022-12-11T02:58:30.269Z,100523.78
2022-12-11T03:04:17.132Z,100511.53
2022-12-11T03:10:07.123Z,100519.44
2022-12-11T03:16:21.675Z,100507.53
2022-12-11T03:22:33.740Z,100496.44
2022-12-11T03:28:30.476Z,100485.78
2022-12-11T03:34:25.900Z,100472.59
2022-12-11T03:40:16.433Z,100458.03
2022-12-11T03:46:03.445Z,100459.13
2022-12-11T03:51:52.264Z,100473.09
2022-12-11T03:57:39.083Z,100468.78
2022-12-11T04:03:25.768Z,100472.91
2022-12-11T04:09:12.672Z,100470.28
2022-12-11T04:15:02.272Z,100475.44
2022-12-11T04:21:07.494Z,100472.78
2022-12-11T04:26:54.139Z,100472.69
2022-12-11T04:32:40.949Z,100460.28
2022-12-11T04:38:27.614Z,100454.50
2022-12-11T04:44:14.228Z,100452.56
2022-12-11T04:50:00.830Z,100449.53
2022-12-11T04:55:48.599Z,100443.59
2022-12-11T05:01:35.411Z,100433.97
2022-12-11T05:07:22.151Z,100434.50
2022-12-11T05:13:08.790Z,100430.31
2022-12-11T05:18:55.499Z,100421.69
2022-12-11T05:24:42.432Z,100426.91
2022-12-11T05:30:29.079Z,100428.03
2022-12-11T05:36:31.577Z,100423.91
2022-12-11T05:42:18.237Z,100421.44
2022-12-11T05:48:05.042Z,100424.78
2022-12-11T05:53:52.989Z,100416.22
2022-12-11T05:59:39.874Z,100414.66
2022-12-11T06:05:26.597Z,100407.88
2022-12-11T06:11:22.335Z,100409.97
2022-12-11T06:17:10.670Z,100410.16
2022-12-11T06:22:57.634Z,100409.06
2022-12-11T06:28:44.595Z,100405.81
2022-12-11T06:34:31.268Z,100392.63
2022-12-11T06:40:18.096Z,100394.97
2022-12-11T06:46:14.220Z,100410.53
2022-12-11T06:52:00.932Z,100414.75
2022-12-11T06:57:47.688Z,100408.66
2022-12-11T07:03:34.372Z,100414.59
2022-12-11T07:09:22.680Z,100416.38
2022-12-11T07:15:10.192Z,100409.31
2022-12-11T07:21:00.083Z,100400.00
2022-12-11T07:26:46.791Z,100404.88
2022-12-11T07:32:33.844Z,100404.75
2022-12-11T07:38:20.581Z,100405.72
2022-12-11T07:44:07.283Z,100411.34
2022-12-11T07:49:53.951Z,100405.38
2022-12-11T07:55:40.612Z,100424.91
2022-12-11T08:01:29.369Z,100428.72
2022-12-11T08:07:16.266Z,100432.69
2022-12-11T08:13:03.400Z,100428.66
2022-12-11T08:18:50.619Z,100434.28
2022-12-11T08:24:37.459Z,100438.50
2022-12-11T08:30:24.235Z,100445.59
2022-12-11T08:36:13.906Z,100465.00
2022-12-11T08:42:00.711Z,100482.59
2022-12-11T08:47:47.442Z,100482.19
2022-12-11T08:53:34.330Z,100488.84
2022-12-11T08:59:21.848Z,100486.56
2022-12-11T09:05:10.094Z,100495.03
2022-12-11T09:11:02.045Z,100463.81
2022-12-11T09:16:48.568Z,100472.13
2022-12-11T09:22:35.163Z,100477.03
2022-12-11T09:28:22.390Z,100461.28
2022-12-11T09:34:19.713Z,100475.84
2022-12-11T09:40:14.551Z,100467.50
2022-12-11T09:46:05.205Z,100467.81
2022-12-11T09:52:08.917Z,100467.25
2022-12-11T09:58:05.267Z,100470.31
2022-12-11T10:04:16.196Z,100475.56
2022-12-11T10:10:05.937Z,100466.34
2022-12-11T10:16:17.404Z,100456.94
2022-12-11T10:22:04.280Z,100449.72
2022-12-11T10:27:51.145Z,100459.16
2022-12-11T10:33:56.527Z,100459.53
2022-12-11T10:39:44.249Z,100449.59
2022-12-11T10:45:31.069Z,100448.06
2022-12-11T10:51:18.416Z,100449.47
2022-12-11T10:57:08.485Z,100450.69
2022-12-11T11:02:55.730Z,100451.31
2022-12-11T11:08:48.580Z,100445.28
2022-12-11T11:14:35.415Z,100429.09
2022-12-11T11:20:27.313Z,100426.47
2022-12-11T11:26:13.971Z,100428.91
2022-12-11T11:32:16.166Z,100432.84
2022-12-11T11:38:21.177Z,100420.28
2022-12-11T11:44:13.402Z,100412.28
2022-12-11T11:50:07.234Z,100413.47
2022-12-11T11:56:21.516Z,100415.69
2022-12-11T12:02:16.399Z,100397.50
2022-12-11T12:08:32.558Z,100409.25
2022-12-11T12:14:55.509Z,100413.97
2022-12-11T12:21:07.671Z,100394.81
2022-12-11T12:27:50.365Z,100400.69
2022-12-11T12:33:44.060Z,100399.41
2022-12-11T12:39:40.085Z,100369.75
2022-12-11T12:45:35.348Z,100375.19
2022-12-11T12:51:22.741Z,100376.38
2022-12-11T12:57:09.664Z,100371.97
2022-12-11T13:02:57.777Z,100374.00
2022-12-11T13:08:51.834Z,100381.75
2022-12-11T13:14:38.983Z,100374.94
2022-12-11T13:20:29.518Z,100374.59
2022-12-11T13:26:30.130Z,100385.28
2022-12-11T13:32:17.133Z,100374.78
2022-12-11T13:38:08.525Z,100374.13
2022-12-11T13:43:55.717Z,100370.25
2022-12-11T13:49:44.864Z,100366.91
2022-12-11T13:55:34.755Z,100373.81
2022-12-11T14:01:32.459Z,100359.81
2022-12-11T14:07:26.411Z,100369.63
2022-12-11T14:13:19.133Z,100370.84
2022-12-11T14:19:08.414Z,100367.13
2022-12-11T14:25:00.547Z,100367.56
2022-12-11T14:30:52.059Z,100367.28
2022-12-11T14:36:39.767Z,100369.97
2022-12-11T14:42:46.003Z,100368.53
2022-12-11T14:49:00.631Z,100367.16
2022-12-11T14:55:07.534Z,100361.59
2022-12-11T15:01:00.081Z,100360.38
2022-12-11T15:06:49.520Z,100354.06
2022-12-11T15:12:45.168Z,100354.31
2022-12-11T15:18:39.665Z,100360.84
2022-12-11T15:24:35.625Z,100357.06
2022-12-11T15:30:26.680Z,100355.78
2022-12-11T15:36:32.389Z,100348.56
2022-12-11T15:42:25.553Z,100352.13
2022-12-11T15:48:12.211Z,100338.06
2022-12-11T15:53:58.983Z,100340.63
2022-12-11T15:59:50.233Z,100347.03
2022-12-11T16:05:37.011Z,100346.00
2022-12-11T16:11:24.606Z,100346.09
2022-12-11T16:17:13.191Z,100342.56
2022-12-11T16:22:59.914Z,100361.13
2022-12-11T16:28:46.644Z,100364.94
2022-12-11T16:34:33.377Z,100369.28
2022-12-11T16:40:20.476Z,100376.13
2022-12-11T16:46:07.736Z,100369.28
2022-12-11T16:51:54.718Z,100358.84
2022-12-11T16:57:41.876Z,100370.78
2022-12-11T17:03:30.131Z,100357.28
2022-12-11T17:09:16.819Z,100370.31
2022-12-11T17:15:03.857Z,100360.47
2022-12-11T17:20:50.517Z,100350.19
2022-12-11T17:26:37.383Z,100345.84
2022-12-11T17:32:24.233Z,100347.72
2022-12-11T17:38:10.976Z,100357.34
2022-12-11T17:43:57.636Z,100352.66
2022-12-11T17:49:44.663Z,100359.13
2022-12-11T17:55:31.499Z,100333.44
2022-12-11T18:01:18.836Z,100346.72
2022-12-11T18:07:06.845Z,100360.06
2022-12-11T18:12:53.611Z,100363.81
2022-12-11T18:18:40.662Z,100368.03
2022-12-11T18:24:31.847Z,100358.19
2022-12-11T18:30:18.693Z,100341.75
2022-12-11T18:36:06.239Z,100336.72
2022-12-11T18:42:16.527Z,100329.03
2022-12-11T18:47:59.615Z,100321.06
2022-12-11T18:53:46.665Z,100323.00
2022-12-11T18:59:34.268Z,100319.72
2022-12-11T19:05:21.103Z,100320.13
2022-12-11T19:11:08.088Z,100325.94
2022-12-11T19:16:55.323Z,100313.34
2022-12-11T19:22:42.181Z,100315.50
2022-12-11T19:28:28.938Z,100323.34
2022-12-11T19:34:16.038Z,100322.56
2022-12-11T19:40:02.900Z,100333.91
2022-12-11T19:45:49.515Z,100329.06
2022-12-11T19:51:38.905Z,100332.31
2022-12-11T19:57:25.754Z,100328.88
2022-12-11T20:03:13.606Z,100335.63
2022-12-11T20:09:05.819Z,100324.81
2022-12-11T20:14:52.775Z,100337.59
2022-12-11T20:20:41.398Z,100342.47
2022-12-11T20:26:30.130Z,100343.63
2022-12-11T20:32:18.723Z,100348.72
2022-12-11T20:38:05.652Z,100363.38
2022-12-11T20:43:57.548Z,100359.09
2022-12-11T20:49:45.057Z,100373.22
2022-12-11T20:55:32.601Z,100376.41
2022-12-11T21:01:22.593Z,100376.59
2022-12-11T21:07:11.681Z,100363.91
2022-12-11T21:12:58.421Z,100373.19
2022-12-11T21:18:46.798Z,100369.31
2022-12-11T21:24:34.079Z,100372.56
2022-12-11T21:30:21.919Z,100377.94
2022-12-11T21:36:11.602Z,100365.22
2022-12-11T21:42:05.130Z,100359.56
2022-12-11T21:47:52.397Z,100363.94
2022-12-11T21:53:40.051Z,100359.69
2022-12-11T21:59:27.788Z,100363.50
2022-12-11T22:05:15.448Z,100349.88
2022-12-11T22:11:02.572Z,100349.47
2022-12-11T22:16:49.240Z,100345.91
2022-12-11T22:22:36.108Z,100350.63
2022-12-11T22:28:22.899Z,100346.19
2022-12-11T22:34:09.745Z,100341.06
2022-12-11T22:39:56.476Z,100354.84
2022-12-11T22:45:43.281Z,100357.69
2022-12-11T22:51:30.269Z,100359.47
2022-12-11T22:57:17.095Z,100362.03
2022-12-11T23:03:04.084Z,100364.25
2022-12-11T23:08:52.524Z,100369.16
2022-12-11T23:14:39.461Z,100374.22
2022-12-11T23:20:27.773Z,100387.53
2022-12-11T23:26:16.100Z,100374.59
2022-12-11T23:32:06.159Z,100380.06
2022-12-11T23:37:52.942Z,100376.06
2022-12-11T23:43:39.930Z,100377.38
2022-12-11T23:49:26.762Z,100369.56
2022-12-11T23:55:13.780Z,100366.03
